Time;durP1;ratioP1;P1;durP2;ratioP2;P2;SDS_P1;SDS_P2;PMS_P1;PMS_P2;Temp;Humidity;BMP_temperature;BMP_pressure;BME280_temperature;BME280_humidity;BME280_pressure;Samples;Min_cycle;Max_cycle;Signal;HPM_P1;HPM_P2
2021/08/06 00:02:11;;;;;;;0.90;0.63;;;;;;;18.47;78.28;99475.31;5034082;28;20781;-86
2021/08/06 00:04:36;;;;;;;1.40;0.70;;;;;;;18.45;78.41;99471.25;5035012;28;20415;-85
2021/08/06 00:07:03;;;;;;;1.63;0.80;;;;;;;18.42;78.54;99469.94;5035176;28;20411;-86
2021/08/06 00:09:28;;;;;;;1.13;0.70;;;;;;;18.41;78.68;99460.09;5033952;28;20391;-86
2021/08/06 00:11:57;;;;;;;1.00;0.90;;;;;;;18.41;79.20;99462.03;5037883;28;20926;-85
2021/08/06 00:14:24;;;;;;;3.30;0.90;;;;;;;18.40;78.74;99453.03;5035195;28;20521;-86
2021/08/06 00:16:50;;;;;;;0.70;0.60;;;;;;;18.39;78.42;99461.56;5035094;28;20477;-85
2021/08/06 00:19:15;;;;;;;2.13;0.80;;;;;;;18.37;78.41;99461.91;5035011;28;20403;-86
2021/08/06 00:21:40;;;;;;;1.53;0.63;;;;;;;18.35;78.01;99458.66;5034982;28;20430;-86
2021/08/06 00:24:05;;;;;;;0.93;0.82;;;;;;;18.33;77.79;99446.38;5033269;28;20390;-86
2021/08/06 00:26:31;;;;;;;0.80;0.80;;;;;;;18.32;77.87;99447.50;5034560;28;20411;-85
2021/08/06 00:28:56;;;;;;;1.10;1.00;;;;;;;18.30;77.82;99442.34;5024444;28;20393;-86
2021/08/06 00:31:21;;;;;;;3.50;0.70;;;;;;;18.28;77.63;99447.34;5034789;28;20487;-85
2021/08/06 00:33:46;;;;;;;0.70;0.70;;;;;;;18.26;77.47;99440.56;5034443;28;21040;-86
2021/08/06 00:36:12;;;;;;;2.20;1.00;;;;;;;18.26;77.45;99440.56;5016913;28;20406;-86
2021/08/06 00:38:37;;;;;;;1.73;0.77;;;;;;;18.26;77.30;99446.03;5016767;28;20391;-86
2021/08/06 00:41:02;;;;;;;2.13;1.10;;;;;;;18.24;77.58;99442.81;5034747;28;20399;-85
2021/08/06 00:43:30;;;;;;;7.30;1.10;;;;;;;18.21;77.24;99436.03;5034570;28;20870;-86
2021/08/06 00:45:56;;;;;;;1.50;1.00;;;;;;;18.17;76.64;99437.81;5034979;28;20481;-86
2021/08/06 00:48:21;;;;;;;2.50;0.90;;;;;;;18.12;76.76;99436.00;5032917;28;20437;-86
2021/08/06 00:50:47;;;;;;;1.50;1.20;;;;;;;18.11;77.10;99434.38;5033872;28;20763;-87
2021/08/06 00:53:12;;;;;;;3.90;1.05;;;;;;;18.14;77.07;99433.75;5034010;28;20407;-87
2021/08/06 00:55:37;;;;;;;2.73;1.20;;;;;;;18.15;77.23;99429.88;5034409;28;20392;-86
2021/08/06 00:58:03;;;;;;;1.83;1.00;;;;;;;18.17;77.37;99432.31;5034219;28;20823;-86
2021/08/06 01:00:28;;;;;;;4.20;1.45;;;;;;;18.20;77.65;99426.19;5034263;28;20812;-86
2021/08/06 01:03:33;;;;;;;0.93;0.93;;;;;;;18.23;77.40;99432.97;5034692;28;20738;-87
2021/08/06 01:06:07;;;;;;;1.00;1.00;;;;;;;18.24;77.57;99423.63;5030615;28;20549;-86
2021/08/06 01:08:42;;;;;;;1.20;0.80;;;;;;;18.25;77.54;99428.78;5034192;28;20397;-86
2021/08/06 01:11:08;;;;;;;1.08;1.08;;;;;;;18.26;77.32;99426.84;5031309;28;20762;-86
2021/08/06 01:13:42;;;;;;;1.00;1.00;;;;;;;18.28;77.32;99425.41;5033931;28;20401;-86
2021/08/06 01:16:10;;;;;;;1.63;0.90;;;;;;;18.30;77.30;99427.81;5033671;28;20399;-87
2021/08/06 01:18:38;;;;;;;1.55;1.27;;;;;;;18.32;77.44;99425.56;5034039;28;20387;-86
2021/08/06 01:21:09;;;;;;;3.60;2.05;;;;;;;18.34;77.43;99428.81;5046132;28;20404;-87
2021/08/06 01:23:37;;;;;;;1.30;1.20;;;;;;;18.36;77.94;99426.53;5033869;28;20375;-87
2021/08/06 01:26:08;;;;;;;1.20;0.93;;;;;;;18.38;77.65;99424.28;5033530;28;20489;-87
2021/08/06 01:28:43;;;;;;;0.80;0.75;;;;;;;18.36;77.29;99427.34;5033650;28;20894;-86
2021/08/06 01:31:09;;;;;;;1.30;1.02;;;;;;;18.38;76.81;99421.53;5031158;28;20407;-85
2021/08/06 01:33:35;;;;;;;3.28;0.90;;;;;;;18.39;77.10;99414.91;5033041;28;20414;-86
2021/08/06 01:36:01;;;;;;;1.00;1.00;;;;;;;18.39;77.08;99415.75;5033176;28;20415;-86
2021/08/06 01:38:26;;;;;;;2.33;1.00;;;;;;;18.40;77.48;99414.63;5032170;28;20395;-86
2021/08/06 01:41:01;;;;;;;1.25;1.20;;;;;;;18.41;77.51;99418.13;5032400;28;20790;-86
2021/08/06 01:43:49;;;;;;;1.10;1.00;;;;;;;18.42;77.59;99422.50;5033483;28;20474;-86
2021/08/06 01:46:35;;;;;;;1.98;1.02;;;;;;;18.43;77.54;99419.47;5033325;28;21090;-88
2021/08/06 01:49:10;;;;;;;1.10;1.00;;;;;;;18.42;77.57;99423.31;5033043;28;20403;-87
2021/08/06 01:51:39;;;;;;;1.60;1.02;;;;;;;18.43;77.98;99426.88;5029648;28;20435;-87
2021/08/06 01:54:06;;;;;;;2.42;1.20;;;;;;;18.42;77.69;99430.75;5026662;28;20394;-87
2021/08/06 01:56:34;;;;;;;2.22;0.95;;;;;;;18.40;77.82;99422.03;5053082;28;20405;-87
2021/08/06 01:59:00;;;;;;;2.35;0.80;;;;;;;18.39;77.55;99431.38;5053088;28;20390;-87
2021/08/06 02:01:25;;;;;;;2.33;1.00;;;;;;;18.38;77.36;99436.06;5052963;28;20887;-87
2021/08/06 02:03:51;;;;;;;1.33;1.02;;;;;;;18.40;77.06;99438.50;5052529;28;20393;-87
2021/08/06 02:06:17;;;;;;;1.00;0.90;;;;;;;18.38;76.57;99430.56;5032227;28;20473;-86
2021/08/06 02:08:44;;;;;;;1.20;0.90;;;;;;;18.40;77.21;99433.00;5031033;28;20470;-86
2021/08/06 02:11:11;;;;;;;0.93;0.90;;;;;;;18.40;76.45;99425.59;5043697;28;20452;-87
2021/08/06 02:13:37;;;;;;;0.90;0.90;;;;;;;18.44;76.29;99418.31;5052676;28;20393;-87
2021/08/06 02:16:04;;;;;;;1.83;1.00;;;;;;;18.45;76.02;99414.44;5034716;28;20392;-87
2021/08/06 02:18:32;;;;;;;4.07;1.15;;;;;;;18.44;75.95;99415.56;5052024;28;20385;-86
2021/08/06 02:21:01;;;;;;;4.93;1.50;;;;;;;18.45;76.64;99416.38;5052564;28;20872;-86
2021/08/06 02:23:28;;;;;;;3.00;1.30;;;;;;;18.45;77.62;99410.88;5052739;28;20389;-86
2021/08/06 02:25:55;;;;;;;1.85;1.05;;;;;;;18.41;77.93;99402.50;5052379;28;20405;-87
2021/08/06 02:28:22;;;;;;;3.20;1.15;;;;;;;18.43;78.18;99394.78;5051254;28;20497;-87
2021/08/06 02:30:50;;;;;;;1.83;1.00;;;;;;;18.40;78.05;99398.16;5045804;28;20411;-87
2021/08/06 02:33:16;;;;;;;1.40;1.10;;;;;;;18.40;78.00;99397.34;5030908;28;20445;-86
2021/08/06 02:35:42;;;;;;;1.73;1.30;;;;;;;18.41;78.28;99407.97;5014560;28;20391;-87
2021/08/06 02:38:07;;;;;;;4.20;1.25;;;;;;;18.40;78.24;99402.84;5014614;28;20436;-86
2021/08/06 02:40:32;;;;;;;3.67;1.40;;;;;;;18.41;78.31;99399.75;5032235;28;20762;-86
2021/08/06 02:42:58;;;;;;;2.33;1.10;;;;;;;18.44;78.49;99395.56;5031907;28;20912;-86
2021/08/06 02:45:23;;;;;;;3.60;1.60;;;;;;;18.45;78.00;99394.44;5046389;28;20386;-87
2021/08/06 02:47:48;;;;;;;2.90;1.23;;;;;;;18.42;78.44;99384.91;5051995;28;20922;-86
2021/08/06 02:50:14;;;;;;;6.68;1.60;;;;;;;18.42;78.11;99393.16;5052127;28;20885;-86
2021/08/06 02:52:40;;;;;;;1.80;1.10;;;;;;;18.44;77.99;99388.13;5034217;28;20412;-87
2021/08/06 02:55:06;;;;;;;2.83;1.30;;;;;;;18.47;77.88;99389.44;5023509;28;20502;-87
2021/08/06 02:57:31;;;;;;;3.08;1.42;;;;;;;18.46;78.42;99390.56;5030230;28;20468;-87
2021/08/06 02:59:56;;;;;;;1.33;1.23;;;;;;;18.44;78.84;99390.88;5029815;28;20849;-87
2021/08/06 03:02:22;;;;;;;1.63;1.53;;;;;;;18.46;78.93;99393.31;5032596;28;20437;-87
2021/08/06 03:04:47;;;;;;;2.07;1.60;;;;;;;18.45;79.00;99383.47;5031659;28;20720;-86
2021/08/06 03:07:12;;;;;;;1.60;1.50;;;;;;;18.48;79.20;99385.56;5013912;28;20415;-86
2021/08/06 03:09:37;;;;;;;1.48;1.38;;;;;;;18.46;78.33;99394.13;5030889;28;20411;-87
2021/08/06 03:12:03;;;;;;;4.80;1.57;;;;;;;18.51;78.79;99395.91;5029925;28;20391;-87
2021/08/06 03:14:28;;;;;;;3.22;1.55;;;;;;;18.52;79.00;99395.59;5013935;28;20445;-86
2021/08/06 03:16:54;;;;;;;4.90;1.80;;;;;;;18.53;78.73;99388.19;5031540;28;20453;-87
2021/08/06 03:19:19;;;;;;;2.27;2.17;;;;;;;18.53;79.14;99386.25;5042149;28;20451;-87
2021/08/06 03:21:44;;;;;;;2.47;1.88;;;;;;;18.50;79.56;99383.34;5025407;28;20493;-86
2021/08/06 03:24:09;;;;;;;2.67;1.70;;;;;;;18.46;79.36;99387.81;5031323;28;20388;-87
2021/08/06 03:26:35;;;;;;;3.77;1.60;;;;;;;18.50;79.64;99394.31;5030249;28;20402;-86
2021/08/06 03:29:00;;;;;;;3.70;1.60;;;;;;;18.48;79.90;99399.28;5029850;28;20395;-86
2021/08/06 03:31:25;;;;;;;2.73;1.60;;;;;;;18.45;79.93;99405.41;5030622;28;20518;-85
2021/08/06 03:33:51;;;;;;;3.27;1.53;;;;;;;18.39;79.92;99410.25;5030339;28;20886;-84
2021/08/06 03:36:16;;;;;;;2.43;1.83;;;;;;;18.34;80.05;99402.16;5029804;28;20394;-84
2021/08/06 03:38:42;;;;;;;4.57;1.70;;;;;;;18.33;80.20;99416.22;5029737;28;20813;-84
2021/08/06 03:41:07;;;;;;;2.93;1.57;;;;;;;18.24;79.86;99409.91;5031323;28;20781;-84
2021/08/06 03:43:32;;;;;;;4.07;1.50;;;;;;;18.16;79.79;99419.75;5031359;28;20481;-83
2021/08/06 03:45:57;;;;;;;2.17;1.47;;;;;;;18.11;79.64;99430.88;5029766;28;20464;-83
2021/08/06 03:48:23;;;;;;;3.63;1.77;;;;;;;18.12;79.83;99433.28;5027590;28;20434;-83
2021/08/06 03:50:48;;;;;;;2.72;1.70;;;;;;;18.09;79.96;99433.09;5030193;28;20411;-83
2021/08/06 03:53:13;;;;;;;5.43;3.10;;;;;;;18.07;80.43;99438.09;5033868;28;20597;-82
2021/08/06 03:55:39;;;;;;;2.53;1.80;;;;;;;18.07;80.33;99440.84;5030699;28;20403;-81
2021/08/06 03:58:04;;;;;;;6.35;2.85;;;;;;;18.10;79.99;99431.97;5031079;28;20494;-81
2021/08/06 04:00:37;;;;;;;2.43;2.20;;;;;;;18.17;80.33;99434.25;5030055;28;20449;-81
2021/08/06 04:03:02;;;;;;;6.38;2.30;;;;;;;18.18;80.15;99438.63;5031279;28;20432;-81
2021/08/06 04:05:28;;;;;;;4.03;2.25;;;;;;;18.15;80.16;99434.56;5031070;28;20458;-81
2021/08/06 04:07:53;;;;;;;1.87;1.77;;;;;;;18.10;80.40;99424.56;5030986;28;20422;-81
2021/08/06 04:10:20;;;;;;;4.87;2.00;;;;;;;18.12;80.57;99436.00;5026702;28;20404;-80
2021/08/06 04:12:48;;;;;;;1.90;1.80;;;;;;;18.17;80.45;99431.50;5050947;28;20915;-81
2021/08/06 04:15:15;;;;;;;4.93;2.22;;;;;;;18.17;80.31;99424.09;5050710;28;20443;-80
2021/08/06 04:17:41;;;;;;;5.53;1.65;;;;;;;18.18;80.45;99430.41;5034567;28;20442;-81
2021/08/06 04:20:07;;;;;;;1.70;1.60;;;;;;;18.18;79.82;99425.69;5031015;28;20383;-81
2021/08/06 04:22:32;;;;;;;2.33;1.80;;;;;;;18.19;79.47;99423.75;5029667;28;20423;-80
2021/08/06 04:24:58;;;;;;;4.53;2.38;;;;;;;18.19;80.30;99423.75;5030497;28;20438;-80
2021/08/06 04:27:23;;;;;;;2.60;1.60;;;;;;;18.20;80.30;99425.38;5045110;28;20389;-80
2021/08/06 04:29:48;;;;;;;2.20;2.00;;;;;;;18.20;80.09;99428.94;5030860;28;20395;-80
2021/08/06 04:32:13;;;;;;;3.80;1.85;;;;;;;18.21;80.10;99418.78;5030802;28;20402;-80
2021/08/06 04:34:39;;;;;;;2.83;1.90;;;;;;;18.19;80.22;99412.78;5030311;28;20427;-81
2021/08/06 04:37:04;;;;;;;4.07;2.10;;;;;;;18.16;80.21;99422.47;5029462;28;20410;-80
2021/08/06 04:39:29;;;;;;;2.30;1.37;;;;;;;18.13;79.65;99421.19;5030748;28;20392;-80
2021/08/06 04:41:55;;;;;;;1.70;1.60;;;;;;;18.09;80.00;99419.41;5032932;28;20419;-79
2021/08/06 04:44:20;;;;;;;1.90;1.80;;;;;;;18.02;80.04;99414.38;5048088;28;20393;-80
2021/08/06 04:46:45;;;;;;;1.97;1.83;;;;;;;18.06;80.15;99412.63;5054389;28;20399;-80
2021/08/06 04:49:11;;;;;;;4.40;1.67;;;;;;;18.04;79.68;99408.59;5054591;28;20382;-80
2021/08/06 04:51:37;;;;;;;1.85;1.75;;;;;;;18.06;79.82;99414.56;5054139;28;20420;-80
2021/08/06 04:54:03;;;;;;;2.38;1.38;;;;;;;18.07;79.77;99407.94;5046942;28;20425;-80
2021/08/06 04:56:29;;;;;;;3.13;1.45;;;;;;;18.08;80.06;99413.09;5033892;28;20427;-80
2021/08/06 04:58:54;;;;;;;2.60;1.45;;;;;;;18.10;79.78;99410.06;5032718;28;20435;-80
2021/08/06 05:01:19;;;;;;;1.83;1.73;;;;;;;18.02;80.49;99406.16;5025846;28;20544;-80
2021/08/06 05:03:44;;;;;;;3.80;2.00;;;;;;;18.04;80.79;99403.09;5031274;28;20728;-80
2021/08/06 05:06:10;;;;;;;2.50;2.00;;;;;;;18.05;81.02;99402.78;5034001;28;20395;-80
2021/08/06 05:08:38;;;;;;;3.37;1.97;;;;;;;18.04;81.08;99401.19;5034025;28;20395;-80
2021/08/06 05:11:04;;;;;;;2.42;2.00;;;;;;;18.04;80.95;99387.47;5033221;28;20474;-80
2021/08/06 05:13:29;;;;;;;3.55;2.10;;;;;;;17.99;81.28;99384.06;5032105;28;20491;-80
2021/08/06 05:15:54;;;;;;;5.17;3.00;;;;;;;18.02;81.33;99384.22;5029300;28;20762;-80
2021/08/06 05:18:19;;;;;;;3.33;2.00;;;;;;;18.09;81.33;99384.56;5034287;28;20508;-81
2021/08/06 05:20:45;;;;;;;3.07;2.00;;;;;;;18.13;81.17;99391.03;5031417;28;20435;-80
2021/08/06 05:23:10;;;;;;;1.97;1.87;;;;;;;18.16;81.25;99386.84;5019445;28;20404;-80
2021/08/06 05:25:36;;;;;;;2.63;1.90;;;;;;;18.21;81.04;99388.63;5028346;28;20423;-80
2021/08/06 05:28:01;;;;;;;2.57;1.90;;;;;;;18.16;81.24;99389.56;5032355;28;20407;-81
2021/08/06 05:30:26;;;;;;;2.47;1.50;;;;;;;18.21;81.53;99396.84;5029916;28;20431;-80
2021/08/06 05:32:52;;;;;;;2.20;1.70;;;;;;;18.30;81.29;99400.41;5032219;28;20412;-80
2021/08/06 05:35:18;;;;;;;2.60;1.60;;;;;;;18.36;81.04;99404.59;5031126;28;20407;-81
2021/08/06 05:37:44;;;;;;;2.25;1.98;;;;;;;18.27;81.02;99403.78;5032520;28;20414;-80
2021/08/06 05:40:10;;;;;;;1.67;1.57;;;;;;;18.15;81.31;99409.88;5031667;28;21070;-81
2021/08/06 05:42:36;;;;;;;2.30;2.10;;;;;;;18.11;81.69;99403.44;5033131;28;20453;-81
2021/08/06 05:45:01;;;;;;;1.90;1.80;;;;;;;18.14;81.95;99402.81;5030990;28;20535;-80
2021/08/06 05:47:27;;;;;;;3.63;1.55;;;;;;;18.26;81.56;99404.91;5029745;28;20419;-82
2021/08/06 05:49:52;;;;;;;3.33;1.70;;;;;;;18.39;81.17;99407.50;5027276;28;20414;-83
2021/08/06 05:52:17;;;;;;;2.37;1.60;;;;;;;18.50;81.19;99406.09;5027011;28;20906;-85
2021/08/06 05:54:43;;;;;;;1.83;1.60;;;;;;;18.57;81.10;99406.41;5029936;28;20418;-85
2021/08/06 05:57:08;;;;;;;3.07;1.70;;;;;;;18.57;80.91;99413.84;5032357;28;20419;-82
2021/08/06 05:59:33;;;;;;;1.70;1.60;;;;;;;18.54;81.21;99415.28;5028619;28;20878;-80
2021/08/06 06:01:58;;;;;;;2.40;1.30;;;;;;;18.54;80.74;99429.00;5032046;28;20410;-81
2021/08/06 06:04:24;;;;;;;1.90;1.80;;;;;;;18.47;80.94;99422.38;5031055;28;20906;-82
2021/08/06 06:06:49;;;;;;;1.73;1.63;;;;;;;18.50;81.27;99428.06;5031855;28;20403;-83
2021/08/06 06:09:14;;;;;;;2.38;2.13;;;;;;;18.57;81.23;99438.53;5031629;28;20414;-82
2021/08/06 06:11:39;;;;;;;2.07;1.67;;;;;;;18.51;81.17;99443.38;5029775;28;20432;-83
2021/08/06 06:14:05;;;;;;;3.50;1.77;;;;;;;18.49;81.20;99433.81;5029969;28;20414;-81
2021/08/06 06:16:30;;;;;;;4.20;1.30;;;;;;;18.47;81.21;99447.06;5030938;28;20439;-81
2021/08/06 06:18:55;;;;;;;2.60;1.30;;;;;;;18.49;81.17;99448.34;5029674;28;20957;-81
2021/08/06 06:21:21;;;;;;;2.33;1.37;;;;;;;18.44;81.06;99453.19;5032111;28;20413;-82
2021/08/06 06:23:46;;;;;;;1.40;0.90;;;;;;;18.37;80.65;99445.44;5030927;28;20422;-82
2021/08/06 06:26:12;;;;;;;1.37;0.80;;;;;;;18.44;80.91;99448.47;5038362;28;20422;-83
2021/08/06 06:28:37;;;;;;;4.27;1.60;;;;;;;18.26;81.16;99459.75;5030766;28;20418;-81
2021/08/06 06:31:02;;;;;;;2.20;0.80;;;;;;;18.28;81.09;99462.97;5030053;28;20914;-82
2021/08/06 06:33:28;;;;;;;1.50;1.10;;;;;;;18.33;81.35;99460.91;5031210;28;20418;-82
2021/08/06 06:35:54;;;;;;;0.90;0.90;;;;;;;18.37;80.92;99461.91;5030890;28;20494;-81
2021/08/06 06:38:19;;;;;;;0.70;0.70;;;;;;;18.36;80.51;99457.53;5031748;28;20411;-81
2021/08/06 06:40:45;;;;;;;0.87;0.87;;;;;;;18.34;80.17;99461.72;5031171;28;20399;-81
2021/08/06 06:43:10;;;;;;;1.00;0.90;;;;;;;18.38;80.40;99466.22;5031854;28;20399;-82
2021/08/06 06:45:35;;;;;;;1.50;0.90;;;;;;;18.41;80.38;99473.00;5032135;28;20809;-82
2021/08/06 06:48:01;;;;;;;1.37;1.23;;;;;;;18.31;80.84;99474.13;5031005;28;20716;-83
2021/08/06 06:50:28;;;;;;;0.70;0.70;;;;;;;18.27;81.01;99472.34;5031737;28;20403;-85
2021/08/06 06:52:54;;;;;;;0.80;0.80;;;;;;;18.27;81.58;99488.81;5029949;28;20919;-84
2021/08/06 06:55:20;;;;;;;1.25;0.70;;;;;;;18.29;81.55;99492.84;5031696;28;20435;-81
2021/08/06 06:57:51;;;;;;;0.73;0.73;;;;;;;18.39;80.73;99489.81;5030620;28;20465;-83
2021/08/06 07:00:21;;;;;;;1.25;0.93;;;;;;;18.47;81.08;99485.47;5031514;28;20414;-82
2021/08/06 07:02:49;;;;;;;2.20;0.90;;;;;;;18.63;80.65;99497.63;5031594;28;20403;-84
2021/08/06 07:05:15;;;;;;;2.55;0.80;;;;;;;18.67;80.25;99493.13;5013910;28;20804;-85
2021/08/06 07:07:40;;;;;;;3.70;1.08;;;;;;;18.79;80.20;99496.03;5031680;28;20478;-84
2021/08/06 07:10:10;;;;;;;0.90;0.90;;;;;;;18.86;79.36;99490.88;5031179;28;20882;-82
2021/08/06 07:12:40;;;;;;;1.90;1.00;;;;;;;18.85;78.97;99505.72;5030756;28;20886;-84
2021/08/06 07:15:07;;;;;;;1.08;1.00;;;;;;;18.78;79.64;99499.88;5029162;28;20767;-84
2021/08/06 07:17:34;;;;;;;2.37;1.30;;;;;;;18.80;79.72;99505.88;5046787;28;20413;-83
2021/08/06 07:20:10;;;;;;;1.40;1.10;;;;;;;18.75;79.70;99507.94;5032170;28;20608;-84
2021/08/06 07:22:39;;;;;;;1.30;1.20;;;;;;;18.80;80.11;99508.63;5014443;28;20399;-85
2021/08/06 07:25:11;;;;;;;1.70;1.50;;;;;;;18.88;79.83;99513.28;5001044;28;20429;-83
2021/08/06 07:27:44;;;;;;;2.00;1.10;;;;;;;18.92;79.95;99508.78;5006599;28;20839;-85
2021/08/06 07:30:10;;;;;;;3.50;1.13;;;;;;;19.00;79.48;99515.41;4989345;28;20422;-84
2021/08/06 07:32:36;;;;;;;1.35;1.25;;;;;;;19.04;79.18;99527.34;4991748;28;20430;-87
2021/08/06 07:35:03;;;;;;;4.38;0.95;;;;;;;18.91;79.08;99528.31;4995071;28;20917;-90
2021/08/06 07:37:43;;;;;;;1.77;1.02;;;;;;;18.96;78.95;99528.16;4983777;28;20905;-81
2021/08/06 07:40:10;;;;;;;0.77;0.77;;;;;;;19.06;77.90;99536.91;4990134;28;20446;-81
2021/08/06 07:42:40;;;;;;;1.80;1.05;;;;;;;19.14;78.27;99540.75;5002241;28;20945;-80
2021/08/06 07:45:07;;;;;;;1.60;0.80;;;;;;;19.07;77.06;99538.50;4989453;28;20398;-82
2021/08/06 07:47:32;;;;;;;1.10;0.88;;;;;;;19.08;77.76;99545.59;4989993;28;20438;-84
2021/08/06 07:49:58;;;;;;;1.60;0.70;;;;;;;19.07;78.22;99543.97;4994334;28;20491;-83
2021/08/06 07:52:23;;;;;;;3.07;1.17;;;;;;;19.16;78.12;99539.28;5005408;28;20426;-87
2021/08/06 07:54:48;;;;;;;2.05;0.82;;;;;;;19.26;76.59;99534.63;4990044;28;20399;-87
2021/08/06 07:57:14;;;;;;;2.33;1.20;;;;;;;19.36;75.61;99540.59;4990682;28;20418;-84
2021/08/06 07:59:40;;;;;;;0.60;0.60;;;;;;;19.47;75.59;99539.16;4991336;28;20407;-84
2021/08/06 08:02:06;;;;;;;1.13;0.80;;;;;;;19.59;75.49;99544.00;5006416;28;20897;-86
2021/08/06 08:04:32;;;;;;;2.70;0.70;;;;;;;19.69;75.38;99547.19;4991069;28;20434;-83
2021/08/06 08:06:57;;;;;;;2.20;0.93;;;;;;;19.72;74.77;99543.00;4993138;28;20467;-81
2021/08/06 08:09:22;;;;;;;1.80;0.80;;;;;;;19.58;75.19;99545.94;4997673;28;20410;-83
2021/08/06 08:11:48;;;;;;;0.53;0.53;;;;;;;19.49;76.19;99544.31;5006285;28;20410;-83
2021/08/06 08:14:13;;;;;;;0.50;0.50;;;;;;;19.56;76.04;99547.38;4992032;28;20866;-84
2021/08/06 08:16:38;;;;;;;2.70;0.90;;;;;;;19.69;75.64;99555.41;4991866;28;20952;-84
2021/08/06 08:19:04;;;;;;;0.90;0.60;;;;;;;19.76;75.70;99554.13;4988976;28;20445;-84
2021/08/06 08:21:29;;;;;;;0.70;0.70;;;;;;;19.84;74.84;99551.34;4994731;28;20414;-83
2021/08/06 08:23:54;;;;;;;1.37;0.80;;;;;;;19.85;73.85;99547.47;4997687;28;20872;-85
2021/08/06 08:26:20;;;;;;;1.50;0.60;;;;;;;19.78;74.49;99547.19;5031408;28;20409;-84
2021/08/06 08:28:46;;;;;;;0.65;0.60;;;;;;;19.77;73.72;99556.53;5012161;28;20422;-83
2021/08/06 08:31:11;;;;;;;0.70;0.70;;;;;;;19.83;74.13;99549.72;5029597;28;20409;-84
2021/08/06 08:33:36;;;;;;;0.97;0.70;;;;;;;19.90;74.29;99550.03;5033401;28;20789;-87
2021/08/06 08:36:02;;;;;;;2.00;1.20;;;;;;;19.86;74.44;99551.81;5030025;28;20411;-86
2021/08/06 08:38:27;;;;;;;1.00;0.67;;;;;;;20.02;73.03;99543.88;5027660;28;20435;-84
2021/08/06 08:40:55;;;;;;;1.63;0.70;;;;;;;20.19;72.42;99543.78;5030042;28;20415;-84
2021/08/06 08:43:20;;;;;;;4.68;0.82;;;;;;;20.29;72.42;99543.44;5034452;28;20470;-86
2021/08/06 08:45:47;;;;;;;1.53;0.77;;;;;;;20.49;72.01;99539.94;5031685;28;21001;-85
2021/08/06 08:48:13;;;;;;;1.73;0.68;;;;;;;20.68;71.86;99534.00;5027567;28;20413;-82
2021/08/06 08:50:40;;;;;;;2.20;0.80;;;;;;;20.83;70.91;99538.09;5033752;28;20766;-86
2021/08/06 08:53:07;;;;;;;2.50;0.52;;;;;;;20.63;71.12;99536.94;5034316;28;20387;-84
2021/08/06 08:55:32;;;;;;;1.63;0.60;;;;;;;20.47;73.09;99544.97;5033555;28;20460;-85
2021/08/06 08:57:58;;;;;;;0.60;0.60;;;;;;;20.34;71.59;99525.94;5031523;28;20419;-86
2021/08/06 09:00:23;;;;;;;0.50;0.50;;;;;;;20.09;70.84;99527.63;5042951;28;20401;-87
2021/08/06 09:02:49;;;;;;;1.43;1.30;;;;;;;19.89;73.49;99545.66;5034337;28;20395;-86
2021/08/06 09:05:26;;;;;;;1.07;0.93;;;;;;;19.77;75.03;99545.56;5033114;28;20409;-89
2021/08/06 09:07:53;;;;;;;2.55;0.80;;;;;;;19.74;75.87;99548.13;5027536;28;20418;-87
2021/08/06 09:10:22;;;;;;;1.63;0.80;;;;;;;19.74;75.69;99548.97;5030008;28;20506;-86
2021/08/06 09:12:56;;;;;;;1.40;0.82;;;;;;;19.80;74.90;99541.31;5029927;28;20461;-85
2021/08/06 09:15:40;;;;;;;3.40;0.80;;;;;;;19.79;75.35;99548.75;5030295;28;20445;-85
2021/08/06 09:18:29;;;;;;;1.88;1.13;;;;;;;19.73;74.30;99549.25;5033483;28;20446;-85
2021/08/06 09:21:15;;;;;;;3.37;1.20;;;;;;;19.66;75.23;99553.34;5034035;28;20391;-84
2021/08/06 09:23:45;;;;;;;1.70;0.90;;;;;;;19.60;75.48;99557.38;5023091;28;20949;-84
2021/08/06 09:26:30;;;;;;;1.23;1.00;;;;;;;19.71;74.86;99557.03;5032388;28;20427;-86
2021/08/06 09:29:19;;;;;;;0.80;0.80;;;;;;;19.94;75.47;99553.75;5033016;28;20434;-85
2021/08/06 09:31:55;;;;;;;1.70;0.77;;;;;;;20.33;75.25;99558.16;5034107;28;20485;-87
2021/08/06 09:34:36;;;;;;;0.93;0.80;;;;;;;20.67;75.03;99555.22;5050044;28;20389;-87
2021/08/06 09:37:06;;;;;;;3.05;1.55;;;;;;;20.96;72.17;99557.13;5025017;28;20470;-85
2021/08/06 09:39:45;;;;;;;2.35;0.60;;;;;;;21.29;68.73;99551.72;5032670;28;20410;-87
2021/08/06 09:42:17;;;;;;;1.92;0.90;;;;;;;21.34;67.06;99553.47;5029332;28;20415;-86
2021/08/06 09:44:44;;;;;;;2.50;0.80;;;;;;;21.12;65.59;99557.34;5028107;28;20403;-87
2021/08/06 09:47:21;;;;;;;2.08;0.88;;;;;;;20.89;65.90;99561.56;5006849;28;20411;-90
2021/08/06 09:49:49;;;;;;;3.10;1.15;;;;;;;20.61;65.49;99561.25;5030142;28;20418;-87
2021/08/06 09:52:15;;;;;;;1.85;0.70;;;;;;;20.46;66.77;99590.16;5026702;28;20429;-84
2021/08/06 09:54:49;;;;;;;2.30;1.10;;;;;;;20.14;70.90;99605.31;5028184;28;20418;-86
2021/08/06 09:57:14;;;;;;;7.40;1.40;;;;;;;19.83;74.08;99584.66;5032737;28;20415;-83
2021/08/06 09:59:42;;;;;;;4.53;1.33;;;;;;;19.87;74.87;99591.13;5031646;28;20670;-82
2021/08/06 10:02:26;;;;;;;4.03;1.10;;;;;;;20.32;73.82;99589.56;5014797;28;20957;-81
2021/08/06 10:05:07;;;;;;;2.70;1.02;;;;;;;20.50;72.96;99582.84;5012716;28;20925;-82
2021/08/06 10:07:41;;;;;;;2.90;1.35;;;;;;;20.54;73.00;99583.81;5030367;28;20414;-82
2021/08/06 10:10:29;;;;;;;4.03;1.15;;;;;;;20.88;72.90;99582.00;5028016;28;20486;-84
2021/08/06 10:12:55;;;;;;;4.00;1.50;;;;;;;22.06;67.81;99580.50;5024903;28;20414;-83
2021/08/06 10:15:22;;;;;;;2.55;0.82;;;;;;;22.05;67.86;99574.16;5031807;28;20403;-83
2021/08/06 10:17:50;;;;;;;1.35;0.80;;;;;;;21.88;67.89;99577.09;5026827;28;20427;-85
2021/08/06 10:20:20;;;;;;;1.77;0.80;;;;;;;21.90;67.61;99580.31;5026028;28;20433;-84
2021/08/06 10:22:45;;;;;;;1.45;0.82;;;;;;;22.02;67.05;99580.38;5026827;28;20421;-84
2021/08/06 10:25:12;;;;;;;1.63;0.87;;;;;;;22.09;67.18;99583.38;5026152;28;20419;-84
2021/08/06 10:27:42;;;;;;;4.00;0.80;;;;;;;22.05;67.43;99590.72;5023700;28;20410;-85
2021/08/06 10:30:20;;;;;;;1.50;0.70;;;;;;;21.96;67.10;99594.72;5025392;28;20409;-87
2021/08/06 10:33:12;;;;;;;1.63;0.80;;;;;;;22.04;65.95;99597.38;5025516;28;20497;-85
2021/08/06 10:35:41;;;;;;;3.97;1.03;;;;;;;22.30;63.37;99588.78;5026805;28;20439;-85
2021/08/06 10:38:06;;;;;;;2.17;0.80;;;;;;;23.33;61.49;99589.28;5029967;28;20520;-85
2021/08/06 10:40:32;;;;;;;0.98;0.40;;;;;;;25.51;53.79;99583.03;5031304;28;20483;-88
2021/08/06 10:42:58;;;;;;;1.90;0.40;;;;;;;27.52;48.57;99579.25;5029569;28;20412;-87
2021/08/06 10:45:46;;;;;;;0.70;0.30;;;;;;;29.69;43.54;99580.59;5010640;28;20414;-85
2021/08/06 10:48:30;;;;;;;1.10;0.70;;;;;;;31.34;38.69;99565.88;5029045;28;20421;-82
2021/08/06 10:51:14;;;;;;;1.90;0.50;;;;;;;31.13;38.93;99562.34;5006173;28;20422;-82
2021/08/06 10:53:43;;;;;;;2.05;0.52;;;;;;;31.50;37.62;99564.59;5029632;28;20403;-84
2021/08/06 10:56:18;;;;;;;1.40;0.38;;;;;;;32.11;36.39;99560.31;4999553;28;20395;-84
2021/08/06 10:58:52;;;;;;;2.47;0.40;;;;;;;32.52;35.08;99568.81;5016052;28;20425;-84
2021/08/06 11:01:26;;;;;;;0.75;0.63;;;;;;;33.03;33.97;99571.53;5019684;28;20418;-83
2021/08/06 11:04:04;;;;;;;0.85;0.45;;;;;;;33.69;32.25;99560.75;5019425;28;20405;-84
2021/08/06 11:06:53;;;;;;;1.10;0.97;;;;;;;33.72;33.23;99578.81;5011465;28;20472;-86
2021/08/06 11:09:25;;;;;;;0.50;0.40;;;;;;;34.50;30.72;99569.19;5013030;28;20416;-86
2021/08/06 11:11:58;;;;;;;1.30;0.30;;;;;;;34.13;31.87;99562.56;5005824;28;20441;-84
2021/08/06 11:14:29;;;;;;;2.23;0.80;;;;;;;34.00;32.54;99563.53;5031654;28;20399;-87
2021/08/06 11:17:01;;;;;;;1.43;0.40;;;;;;;34.02;31.81;99558.28;5013070;28;21226;-83
2021/08/06 11:19:30;;;;;;;1.10;0.40;;;;;;;33.99;30.68;99559.16;5026984;28;20913;-81
2021/08/06 11:21:56;;;;;;;1.40;0.50;;;;;;;33.67;30.79;99551.97;5029680;28;20445;-83
2021/08/06 11:24:22;;;;;;;1.57;0.30;;;;;;;32.51;31.73;99553.97;5030445;28;20407;-82
2021/08/06 11:26:51;;;;;;;1.83;0.50;;;;;;;33.05;32.66;99568.31;5030327;28;20444;-83
2021/08/06 11:29:18;;;;;;;1.83;0.40;;;;;;;32.85;32.53;99559.69;5030771;28;20600;-81
2021/08/06 11:31:44;;;;;;;1.88;0.50;;;;;;;32.95;31.83;99547.56;5030525;28;20888;-83
2021/08/06 11:34:09;;;;;;;0.90;0.30;;;;;;;32.90;32.41;99551.63;5026290;28;20399;-85
2021/08/06 11:36:35;;;;;;;1.00;0.23;;;;;;;32.57;31.64;99546.72;5030940;28;20399;-84
2021/08/06 11:39:14;;;;;;;6.07;0.50;;;;;;;32.26;33.17;99554.19;5029721;28;20474;-84